Time;durP1;ratioP1;P1;durP2;ratioP2;P2;SDS_P1;SDS_P2;PMS_P1;PMS_P2;Temp;Humidity;BMP_temperature;BMP_pressure;BME280_temperature;BME280_humidity;BME280_pressure;Samples;Min_cycle;Max_cycle;Signal;HPM_P1;HPM_P2
2023/04/21 00:00:26;;;;;;;12.40;11.10;;;10.90;66.00;;;;;;5003925;28;20190;-49
2023/04/21 00:02:51;;;;;;;11.07;9.97;;;10.90;65.50;;;;;;5010076;28;20284;-51
2023/04/21 00:05:17;;;;;;;11.33;10.23;;;10.90;65.20;;;;;;5009339;28;20487;-51
2023/04/21 00:07:42;;;;;;;12.57;10.77;;;10.90;65.50;;;;;;5010080;28;20221;-49
2023/04/21 00:10:10;;;;;;;16.63;12.30;;;10.80;65.60;;;;;;5015527;28;20194;-49
2023/04/21 00:12:37;;;;;;;13.23;11.03;;;10.80;65.70;;;;;;5015560;28;20208;-48
2023/04/21 00:15:03;;;;;;;14.80;12.30;;;10.50;67.10;;;;;;5016317;28;20452;-49
2023/04/21 00:17:29;;;;;;;15.43;13.43;;;10.40;68.00;;;;;;5005841;28;20528;-51
2023/04/21 00:19:55;;;;;;;16.53;13.70;;;10.50;68.00;;;;;;5017163;28;20432;-49
2023/04/21 00:22:21;;;;;;;19.10;14.77;;;10.40;68.10;;;;;;5009852;28;20445;-49
2023/04/21 00:24:47;;;;;;;20.00;13.60;;;10.20;69.70;;;;;;5013987;28;20260;-52
2023/04/21 00:27:14;;;;;;;14.87;13.37;;;10.00;71.00;;;;;;5011874;28;20472;-49
2023/04/21 00:29:40;;;;;;;25.70;14.00;;;9.70;74.20;;;;;;5012729;28;20684;-49
2023/04/21 00:32:10;;;;;;;35.27;13.50;;;9.70;74.60;;;;;;5012302;28;20436;-50
2023/04/21 00:34:36;;;;;;;18.93;14.30;;;9.60;75.00;;;;;;5001652;28;20198;-49
2023/04/21 00:37:02;;;;;;;21.07;14.20;;;9.60;76.00;;;;;;5003777;28;20456;-53
2023/04/21 00:39:27;;;;;;;18.17;14.17;;;9.70;75.60;;;;;;5012131;28;20580;-50
2023/04/21 00:41:53;;;;;;;17.67;13.60;;;9.80;75.20;;;;;;5009739;28;20451;-49
2023/04/21 00:44:19;;;;;;;17.77;14.10;;;9.90;74.70;;;;;;5014151;28;20273;-52
2023/04/21 00:46:44;;;;;;;19.37;14.13;;;10.00;72.60;;;;;;5013920;28;20225;-50
2023/04/21 00:49:12;;;;;;;17.53;13.87;;;10.10;72.70;;;;;;5013466;28;20269;-49
2023/04/21 00:51:38;;;;;;;19.47;14.67;;;10.00;72.20;;;;;;5005197;28;20195;-51
2023/04/21 00:54:05;;;;;;;15.53;13.23;;;9.70;75.70;;;;;;5009057;28;20469;-49
2023/04/21 00:56:32;;;;;;;18.40;14.27;;;9.50;76.40;;;;;;5012210;28;20448;-51
2023/04/21 00:58:59;;;;;;;25.80;14.93;;;9.40;77.90;;;;;;5014760;28;20494;-48
2023/04/21 01:01:24;;;;;;;19.33;13.43;;;9.40;77.70;;;;;;5015446;28;20495;-50
2023/04/21 01:03:51;;;;;;;34.27;14.00;;;9.50;77.90;;;;;;5011168;28;20449;-48
2023/04/21 01:06:17;;;;;;;28.80;13.47;;;9.50;77.50;;;;;;5008819;28;20237;-48
2023/04/21 01:08:45;;;;;;;19.83;12.90;;;9.50;77.60;;;;;;5007752;28;20485;-49
2023/04/21 01:11:12;;;;;;;22.00;14.57;;;9.40;78.50;;;;;;5013339;28;20444;-49
2023/04/21 01:13:39;;;;;;;24.27;12.33;;;9.60;78.00;;;;;;5006567;28;20440;-50
2023/04/21 01:16:05;;;;;;;31.30;14.43;;;9.70;76.40;;;;;;5010573;28;20433;-50
2023/04/21 01:18:31;;;;;;;27.87;13.53;;;9.70;76.40;;;;;;5008916;28;20505;-49
2023/04/21 01:21:00;;;;;;;26.50;15.17;;;9.60;76.50;;;;;;5002263;28;20852;-53
2023/04/21 01:23:25;;;;;;;16.87;13.53;;;9.50;77.40;;;;;;5006814;28;20194;-51
2023/04/21 01:25:52;;;;;;;38.23;14.53;;;9.40;78.30;;;;;;5003065;28;20607;-51
2023/04/21 01:28:22;;;;;;;26.30;15.70;;;9.60;78.00;;;;;;5008462;28;20205;-49
2023/04/21 01:30:48;;;;;;;30.93;15.10;;;9.60;78.00;;;;;;5001830;28;20848;-49
2023/04/21 01:33:13;;;;;;;19.33;15.27;;;9.50;78.10;;;;;;5009338;28;20445;-49
2023/04/21 01:35:39;;;;;;;40.73;16.20;;;9.60;78.50;;;;;;5010800;28;20205;-52
2023/04/21 01:38:05;;;;;;;44.70;15.10;;;9.60;77.80;;;;;;5006232;28;20241;-48
2023/04/21 01:40:31;;;;;;;31.63;16.20;;;9.80;77.20;;;;;;5003825;28;20198;-49
2023/04/21 01:42:56;;;;;;;24.57;15.30;;;10.00;74.90;;;;;;5000440;28;20277;-49
2023/04/21 01:45:22;;;;;;;20.30;14.50;;;10.20;74.00;;;;;;5006947;28;20232;-52
2023/04/21 01:47:47;;;;;;;33.53;15.27;;;10.30;73.40;;;;;;5003415;28;20209;-53
2023/04/21 01:50:13;;;;;;;60.23;15.93;;;10.40;72.80;;;;;;5009800;28;20269;-52
2023/04/21 01:52:40;;;;;;;89.90;16.57;;;10.40;72.50;;;;;;5007083;28;20574;-51
2023/04/21 01:55:06;;;;;;;36.63;16.77;;;10.50;71.90;;;;;;5012098;28;20566;-51
2023/04/21 01:57:31;;;;;;;32.40;16.20;;;10.50;71.80;;;;;;5008789;28;20816;-53
2023/04/21 01:59:57;;;;;;;26.40;16.80;;;10.60;71.90;;;;;;5012727;28;20432;-52
2023/04/21 02:02:23;;;;;;;30.27;15.10;;;10.70;71.40;;;;;;5009204;28;20197;-53
2023/04/21 02:04:48;;;;;;;39.97;14.90;;;10.80;71.10;;;;;;5007551;28;20730;-52
2023/04/21 02:07:14;;;;;;;86.83;16.57;;;10.40;71.30;;;;;;5008708;28;20572;-51
2023/04/21 02:09:40;;;;;;;27.33;14.80;;;10.30;72.80;;;;;;5008605;28;20198;-52
2023/04/21 02:12:05;;;;;;;58.87;16.50;;;10.30;72.90;;;;;;5009229;28;20193;-53
2023/04/21 02:14:31;;;;;;;65.67;15.90;;;10.30;72.60;;;;;;5006591;28;20198;-53
2023/04/21 02:16:56;;;;;;;36.20;15.43;;;10.40;72.70;;;;;;5007151;28;20193;-53
2023/04/21 02:19:23;;;;;;;24.63;15.40;;;10.30;72.20;;;;;;4995633;28;20209;-53
2023/04/21 02:21:48;;;;;;;92.63;16.40;;;10.30;73.40;;;;;;5004651;28;20299;-53
2023/04/21 02:24:14;;;;;;;73.03;16.37;;;10.20;73.50;;;;;;5001375;28;20854;-51
2023/04/21 02:26:40;;;;;;;50.33;15.93;;;10.20;73.80;;;;;;5013836;28;20230;-50
2023/04/21 02:29:06;;;;;;;27.37;14.90;;;10.10;73.70;;;;;;5007207;28;20461;-58
2023/04/21 02:31:31;;;;;;;22.93;15.30;;;10.30;73.70;;;;;;5003541;28;20288;-49
2023/04/21 02:33:58;;;;;;;91.87;15.77;;;10.40;72.80;;;;;;5007742;28;20897;-50
2023/04/21 02:36:23;;;;;;;44.70;15.60;;;10.20;73.30;;;;;;5011013;28;20198;-53
2023/04/21 02:38:50;;;;;;;55.23;15.90;;;10.20;73.50;;;;;;4996289;28;20452;-53
2023/04/21 02:41:15;;;;;;;49.23;15.50;;;10.30;73.30;;;;;;5000649;28;20205;-48
2023/04/21 02:43:41;;;;;;;166.60;19.60;;;10.40;72.60;;;;;;5008971;28;20445;-48
2023/04/21 02:46:07;;;;;;;148.87;17.90;;;10.20;71.90;;;;;;5003389;28;20227;-49
2023/04/21 02:48:36;;;;;;;31.30;14.80;;;9.80;76.20;;;;;;5003711;28;20214;-48
2023/04/21 02:51:03;;;;;;;94.00;17.33;;;9.70;77.80;;;;;;5002180;28;20813;-50
2023/04/21 02:53:28;;;;;;;43.37;14.97;;;9.60;78.40;;;;;;5007789;28;20476;-48
2023/04/21 02:55:55;;;;;;;204.20;22.90;;;9.80;77.70;;;;;;5003211;28;20432;-49
2023/04/21 02:58:21;;;;;;;72.20;16.57;;;9.80;76.70;;;;;;5005516;28;20252;-50
2023/04/21 03:00:46;;;;;;;93.93;15.80;;;9.70;77.20;;;;;;5005332;28;20452;-47
2023/04/21 03:03:14;;;;;;;98.13;18.10;;;9.90;77.00;;;;;;4999042;28;20920;-50
2023/04/21 03:05:40;;;;;;;53.63;15.90;;;10.00;75.40;;;;;;5001450;28;20245;-50
2023/04/21 03:08:06;;;;;;;174.13;18.77;;;10.20;74.80;;;;;;5002039;28;20849;-48
2023/04/21 03:10:31;;;;;;;77.73;14.87;;;10.00;73.80;;;;;;5004487;28;20440;-50
2023/04/21 03:12:57;;;;;;;107.63;16.50;;;9.80;75.50;;;;;;5000005;28;20248;-49
2023/04/21 03:15:23;;;;;;;46.43;13.50;;;9.90;76.80;;;;;;5000138;28;20189;-53
2023/04/21 03:17:48;;;;;;;33.63;13.17;;;9.90;76.90;;;;;;5002746;28;20194;-50
2023/04/21 03:20:14;;;;;;;18.23;13.37;;;9.90;76.30;;;;;;5007096;28;20276;-51
2023/04/21 03:22:40;;;;;;;23.20;13.80;;;9.80;76.20;;;;;;5008594;28;20193;-50
2023/04/21 03:25:06;;;;;;;88.17;16.00;;;10.00;74.90;;;;;;5004288;28;20921;-53
2023/04/21 03:27:32;;;;;;;48.97;14.43;;;10.20;73.60;;;;;;5002417;28;20197;-52
2023/04/21 03:29:58;;;;;;;50.07;14.50;;;10.30;72.80;;;;;;5003435;28;20480;-49
2023/04/21 03:32:24;;;;;;;87.50;15.43;;;10.40;72.60;;;;;;5001819;28;22554;-51
2023/04/21 03:34:50;;;;;;;25.70;13.30;;;10.50;72.10;;;;;;4998526;28;20246;-50
2023/04/21 03:37:15;;;;;;;22.53;14.83;;;10.50;71.70;;;;;;4999377;28;20197;-50
2023/04/21 03:39:41;;;;;;;87.87;16.03;;;10.50;71.50;;;;;;5003662;28;20731;-50
2023/04/21 03:42:06;;;;;;;51.10;14.30;;;10.60;71.40;;;;;;4999505;28;20202;-51
2023/04/21 03:44:32;;;;;;;38.87;15.17;;;10.50;70.80;;;;;;5007487;28;20198;-53
2023/04/21 03:46:58;;;;;;;93.17;16.23;;;10.50;71.30;;;;;;5003398;28;20213;-49
2023/04/21 03:49:23;;;;;;;21.60;13.57;;;10.50;71.20;;;;;;5000630;28;20198;-49
2023/04/21 03:51:49;;;;;;;44.53;15.60;;;10.60;71.30;;;;;;5006409;28;20604;-50
2023/04/21 03:54:14;;;;;;;27.40;14.73;;;10.70;71.10;;;;;;5001805;28;20253;-50
2023/04/21 03:56:40;;;;;;;27.50;15.13;;;10.70;70.80;;;;;;5004284;28;20582;-52
2023/04/21 03:59:06;;;;;;;44.67;14.27;;;10.70;70.70;;;;;;5004287;28;20197;-51
2023/04/21 04:01:33;;;;;;;54.87;15.10;;;10.70;70.60;;;;;;5001015;28;20255;-50
2023/04/21 04:03:58;;;;;;;54.63;15.57;;;10.70;70.80;;;;;;4996903;28;20190;-52
2023/04/21 04:06:25;;;;;;;48.17;13.17;;;10.50;71.10;;;;;;5005541;28;20496;-50
2023/04/21 04:08:50;;;;;;;26.63;13.10;;;10.40;70.80;;;;;;5000086;28;20197;-51
2023/04/21 04:11:16;;;;;;;28.73;13.67;;;10.40;71.20;;;;;;5000899;28;20439;-50
2023/04/21 04:13:42;;;;;;;45.93;13.10;;;10.40;71.20;;;;;;5008743;28;20197;-50
2023/04/21 04:16:07;;;;;;;34.47;13.90;;;10.40;71.10;;;;;;5000326;28;20666;-50
2023/04/21 04:18:33;;;;;;;24.03;13.00;;;10.40;70.80;;;;;;5005389;28;20642;-49
2023/04/21 04:21:07;;;;;;;27.83;13.37;;;10.40;71.20;;;;;;5007545;28;20209;-49
2023/04/21 04:23:33;;;;;;;27.07;14.10;;;10.20;71.30;;;;;;5001830;28;20206;-49
2023/04/21 04:26:00;;;;;;;40.60;14.97;;;10.20;71.60;;;;;;5004552;28;20542;-54
2023/04/21 04:28:26;;;;;;;24.87;14.00;;;9.90;73.80;;;;;;5008916;28;20956;-49
2023/04/21 04:30:51;;;;;;;68.63;17.20;;;10.00;72.90;;;;;;5006878;28;20448;-53
2023/04/21 04:33:17;;;;;;;33.33;14.27;;;10.10;71.60;;;;;;5000089;28;20249;-52
2023/04/21 04:35:43;;;;;;;60.47;14.17;;;10.10;72.00;;;;;;5004285;28;20190;-50
2023/04/21 04:38:08;;;;;;;41.57;13.27;;;10.00;72.20;;;;;;5000711;28;20198;-49
2023/04/21 04:40:34;;;;;;;30.77;13.13;;;10.00;73.20;;;;;;4998617;28;20287;-50
2023/04/21 04:43:01;;;;;;;27.93;14.30;;;10.10;72.50;;;;;;4998750;28;20874;-53
2023/04/21 04:45:28;;;;;;;34.47;13.90;;;10.20;72.20;;;;;;4997995;28;20598;-51
2023/04/21 04:47:54;;;;;;;32.07;14.23;;;10.30;72.10;;;;;;5002502;28;21156;-50
2023/04/21 04:50:20;;;;;;;36.33;13.67;;;10.40;71.60;;;;;;4996869;28;20454;-52
2023/04/21 04:52:46;;;;;;;15.17;12.43;;;10.30;71.40;;;;;;5003307;28;20198;-49
2023/04/21 04:55:12;;;;;;;83.97;15.67;;;10.20;71.70;;;;;;5002838;28;20963;-51
2023/04/21 04:57:40;;;;;;;81.30;15.30;;;10.20;71.30;;;;;;5006744;28;20568;-51
2023/04/21 05:00:10;;;;;;;66.90;15.07;;;10.20;72.10;;;;;;5001041;28;20895;-49
2023/04/21 05:02:38;;;;;;;36.70;13.90;;;10.00;72.80;;;;;;5004082;28;20445;-49
2023/04/21 05:05:05;;;;;;;71.93;15.30;;;9.60;76.00;;;;;;5010425;28;20480;-50
2023/04/21 05:07:31;;;;;;;67.53;15.53;;;9.70;76.10;;;;;;4999129;28;20444;-51
2023/04/21 05:09:57;;;;;;;43.77;13.73;;;9.80;75.20;;;;;;5006548;28;20467;-49
2023/04/21 05:12:22;;;;;;;34.80;14.87;;;9.60;75.30;;;;;;5002838;28;21616;-54
2023/04/21 05:14:48;;;;;;;22.93;12.53;;;9.80;76.00;;;;;;5011613;28;20221;-52
2023/04/21 05:17:13;;;;;;;26.83;12.80;;;9.80;76.00;;;;;;5002729;28;20213;-49
2023/04/21 05:19:39;;;;;;;18.60;12.30;;;9.60;75.50;;;;;;5005854;28;20333;-53
2023/04/21 05:22:05;;;;;;;23.77;12.80;;;9.60;77.20;;;;;;5007574;28;20201;-49
2023/04/21 05:24:32;;;;;;;45.63;14.70;;;9.90;76.10;;;;;;4999767;28;20202;-49
2023/04/21 05:26:57;;;;;;;25.13;12.83;;;9.90;73.70;;;;;;5004653;28;20488;-54
2023/04/21 05:29:23;;;;;;;20.33;12.70;;;9.30;77.50;;;;;;5009912;28;20474;-50
2023/04/21 05:31:48;;;;;;;52.10;13.40;;;9.20;80.40;;;;;;5006462;28;20217;-48
2023/04/21 05:34:14;;;;;;;15.60;11.80;;;9.30;80.40;;;;;;5007857;28;20186;-48
2023/04/21 05:36:43;;;;;;;16.73;11.60;;;9.40;81.40;;;;;;5002070;28;20731;-53
2023/04/21 05:39:09;;;;;;;21.13;12.53;;;9.40;81.10;;;;;;5006649;28;20204;-50
2023/04/21 05:41:34;;;;;;;20.23;10.73;;;9.80;81.30;;;;;;5003092;28;20444;-54
2023/04/21 05:44:00;;;;;;;22.73;12.87;;;10.20;78.70;;;;;;5005577;28;20285;-49
2023/04/21 05:46:25;;;;;;;16.60;13.63;;;10.50;76.50;;;;;;5003740;28;20232;-49
2023/04/21 05:48:51;;;;;;;16.77;12.63;;;10.70;73.60;;;;;;4998502;28;20191;-49
2023/04/21 05:51:16;;;;;;;14.40;11.83;;;10.70;72.50;;;;;;5004355;28;20292;-49
2023/04/21 05:53:43;;;;;;;15.13;11.57;;;10.60;72.20;;;;;;5003456;28;20689;-52
2023/04/21 05:56:09;;;;;;;11.00;9.20;;;10.80;72.50;;;;;;5007142;28;20563;-49
2023/04/21 05:58:35;;;;;;;13.83;11.73;;;11.20;71.50;;;;;;5003813;28;20437;-49
2023/04/21 06:01:01;;;;;;;12.10;10.70;;;11.50;70.00;;;;;;5004636;28;20575;-53
2023/04/21 06:03:26;;;;;;;12.03;10.80;;;11.10;68.30;;;;;;5008400;28;20448;-49
2023/04/21 06:05:55;;;;;;;15.97;13.23;;;11.30;69.80;;;;;;5007734;28;20236;-49
2023/04/21 06:08:21;;;;;;;14.00;11.37;;;11.40;68.90;;;;;;5007465;28;20281;-49
2023/04/21 06:10:47;;;;;;;14.30;10.37;;;11.40;68.70;;;;;;5008437;28;20452;-49
2023/04/21 06:13:12;;;;;;;14.10;10.60;;;11.60;68.90;;;;;;5009048;28;20936;-52
2023/04/21 06:15:38;;;;;;;14.53;11.70;;;11.90;68.60;;;;;;5011958;28;20284;-52
2023/04/21 06:18:04;;;;;;;14.23;12.00;;;12.00;67.80;;;;;;5010963;28;20273;-49
2023/04/21 06:20:29;;;;;;;15.50;13.67;;;12.10;66.10;;;;;;5009049;28;20206;-49
2023/04/21 06:22:55;;;;;;;12.70;11.23;;;12.30;65.90;;;;;;5010389;28;20198;-50
2023/04/21 06:25:20;;;;;;;14.03;11.83;;;12.50;64.90;;;;;;5005859;28;20226;-50
2023/04/21 06:27:46;;;;;;;14.47;12.13;;;12.60;64.10;;;;;;5010129;28;20219;-49
2023/04/21 06:30:12;;;;;;;12.70;10.63;;;12.60;63.90;;;;;;5008589;28;20197;-52
2023/04/21 06:32:38;;;;;;;12.77;11.47;;;12.60;64.10;;;;;;5009589;28;20438;-49
2023/04/21 06:35:04;;;;;;;14.27;11.57;;;12.60;64.80;;;;;;5002650;28;20437;-50
2023/04/21 06:37:30;;;;;;;14.70;12.47;;;12.70;64.30;;;;;;5001729;28;20453;-49
2023/04/21 06:39:56;;;;;;;15.93;12.83;;;12.80;63.90;;;;;;5004289;28;20449;-51
2023/04/21 06:42:21;;;;;;;13.30;10.80;;;12.90;63.90;;;;;;5010831;28;20201;-50
2023/04/21 06:44:47;;;;;;;14.73;12.60;;;13.00;63.40;;;;;;5021138;28;20278;-52
2023/04/21 06:47:13;;;;;;;13.53;12.07;;;13.10;62.30;;;;;;5004975;28;20193;-53
2023/04/21 06:49:39;;;;;;;11.90;10.47;;;13.00;62.80;;;;;;5004060;28;20190;-52
2023/04/21 06:52:04;;;;;;;12.90;11.37;;;13.10;63.10;;;;;;5000337;28;20476;-49
2023/04/21 06:54:30;;;;;;;14.50;13.00;;;13.10;63.80;;;;;;4999061;28;20248;-50
2023/04/21 06:56:56;;;;;;;13.33;11.93;;;13.20;63.90;;;;;;5003004;28;20200;-49
2023/04/21 06:59:21;;;;;;;12.90;11.50;;;13.40;63.20;;;;;;5006526;28;20198;-50
2023/04/21 07:01:51;;;;;;;13.23;11.73;;;13.40;63.70;;;;;;5002000;28;20241;-48
2023/04/21 07:04:17;;;;;;;16.43;13.70;;;13.40;63.50;;;;;;5001674;28;20194;-47
2023/04/21 07:06:43;;;;;;;14.97;13.43;;;13.30;64.10;;;;;;5004674;28;20491;-48
2023/04/21 07:09:09;;;;;;;15.33;12.60;;;13.30;64.70;;;;;;5005960;28;20936;-47
2023/04/21 07:11:34;;;;;;;16.53;13.20;;;13.40;64.60;;;;;;5009924;28;20196;-46
2023/04/21 07:14:01;;;;;;;13.10;11.80;;;13.50;63.80;;;;;;5001697;28;20193;-50
2023/04/21 07:16:27;;;;;;;13.70;12.30;;;13.40;63.30;;;;;;5007676;28;20206;-50
2023/04/21 07:18:53;;;;;;;12.73;11.43;;;13.50;63.80;;;;;;5005052;28;20460;-48
2023/04/21 07:21:18;;;;;;;14.10;12.33;;;13.60;64.00;;;;;;5000844;28;20449;-47
2023/04/21 07:23:44;;;;;;;14.10;12.23;;;13.60;63.60;;;;;;5001447;28;20201;-48
2023/04/21 07:26:10;;;;;;;16.07;13.00;;;13.60;63.40;;;;;;5011169;28;20233;-46
2023/04/21 07:28:37;;;;;;;15.83;13.80;;;13.70;62.80;;;;;;5010807;28;20222;-47
2023/04/21 07:31:02;;;;;;;14.13;12.63;;;13.80;62.90;;;;;;5007195;28;20198;-48
2023/04/21 07:33:28;;;;;;;14.90;12.90;;;13.80;62.60;;;;;;5008111;28;20852;-48
2023/04/21 07:35:53;;;;;;;12.77;11.47;;;13.80;63.20;;;;;;5011369;28;20664;-47
2023/04/21 07:38:19;;;;;;;17.00;13.23;;;13.90;64.00;;;;;;5005332;28;20243;-47
2023/04/21 07:40:45;;;;;;;14.33;12.83;;;14.00;63.70;;;;;;5010700;28;20193;-48
2023/04/21 07:43:10;;;;;;;16.30;11.60;;;14.10;63.20;;;;;;5008234;28;20197;-50
2023/04/21 07:45:36;;;;;;;12.83;11.53;;;14.20;63.30;;;;;;5003796;28;20252;-47
2023/04/21 07:48:01;;;;;;;14.50;12.80;;;14.30;62.90;;;;;;5008430;28;20709;-50
2023/04/21 07:50:27;;;;;;;13.33;11.93;;;14.40;62.20;;;;;;5002896;28;20246;-47
2023/04/21 07:52:53;;;;;;;13.10;11.70;;;14.40;62.00;;;;;;5010954;28;20552;-49
2023/04/21 07:55:18;;;;;;;13.30;11.90;;;14.40;61.20;;;;;;5010531;28;20656;-50
2023/04/21 07:57:44;;;;;;;11.70;10.50;;;14.60;61.40;;;;;;5010753;28;20207;-48
2023/04/21 08:00:10;;;;;;;12.43;11.13;;;14.60;61.30;;;;;;5008630;28;20247;-47
2023/04/21 08:02:36;;;;;;;13.63;11.93;;;14.60;60.10;;;;;;5008447;28;20276;-48
2023/04/21 08:05:01;;;;;;;12.47;11.03;;;14.70;59.90;;;;;;5010531;28;20627;-49
2023/04/21 08:07:27;;;;;;;11.80;10.60;;;14.80;59.70;;;;;;5009009;28;20198;-47
2023/04/21 08:09:52;;;;;;;13.80;12.40;;;14.90;59.70;;;;;;5008476;28;20194;-48
2023/04/21 08:12:18;;;;;;;16.80;12.80;;;15.10;60.40;;;;;;4999850;28;20186;-49
2023/04/21 08:14:43;;;;;;;12.10;10.90;;;15.20;60.20;;;;;;5004909;28;20881;-49
2023/04/21 08:17:09;;;;;;;13.00;11.70;;;15.20;60.00;;;;;;5005370;28;20198;-50
2023/04/21 08:19:35;;;;;;;14.33;12.83;;;14.90;59.30;;;;;;5002126;28;20194;-48
2023/04/21 08:22:00;;;;;;;10.90;9.80;;;15.00;60.80;;;;;;4996071;28;21086;-52
2023/04/21 08:24:26;;;;;;;11.67;10.37;;;15.20;60.70;;;;;;4992762;28;20194;-50
2023/04/21 08:26:52;;;;;;;11.30;10.27;;;15.30;60.90;;;;;;5003214;28;20239;-52
2023/04/21 08:29:17;;;;;;;11.97;10.70;;;15.50;60.40;;;;;;5002249;28;20204;-53
2023/04/21 08:31:43;;;;;;;12.50;11.37;;;15.60;60.30;;;;;;5001274;28;20209;-53
2023/04/21 08:34:08;;;;;;;11.90;10.30;;;15.70;60.50;;;;;;5013826;28;20707;-49
2023/04/21 08:36:34;;;;;;;11.90;10.70;;;15.80;60.60;;;;;;5006037;28;20217;-52
2023/04/21 08:39:00;;;;;;;10.67;9.67;;;15.90;61.60;;;;;;5009022;28;20672;-49
2023/04/21 08:41:26;;;;;;;12.93;11.63;;;15.80;60.40;;;;;;5005491;28;20201;-51
2023/04/21 08:43:52;;;;;;;11.20;10.10;;;15.90;60.80;;;;;;5001439;28;21527;-51
2023/04/21 08:46:18;;;;;;;9.90;8.90;;;16.00;61.00;;;;;;4998470;28;20226;-50
2023/04/21 08:48:45;;;;;;;7.30;6.60;;;16.20;59.80;;;;;;4998502;28;20200;-49
2023/04/21 08:51:19;;;;;;;9.67;8.07;;;16.20;60.00;;;;;;5010678;28;21353;-49
2023/04/21 08:53:45;;;;;;;11.80;10.70;;;16.20;58.80;;;;;;5010191;28;20472;-49
2023/04/21 08:56:10;;;;;;;9.60;8.70;;;16.10;59.10;;;;;;5002982;28;21112;-48
2023/04/21 08:58:36;;;;;;;8.67;7.80;;;16.10;58.80;;;;;;5003834;28;20190;-48
2023/04/21 09:01:02;;;;;;;6.60;6.00;;;16.40;58.80;;;;;;5006060;28;20201;-49
2023/04/21 09:03:28;;;;;;;6.70;6.10;;;16.40;58.60;;;;;;5008450;28;20719;-48
2023/04/21 09:06:05;;;;;;;6.53;5.93;;;16.70;58.10;;;;;;5005504;28;20226;-52
2023/04/21 09:08:31;;;;;;;8.73;6.20;;;16.80;56.30;;;;;;5008211;28;20906;-48
2023/04/21 09:10:58;;;;;;;6.43;5.83;;;16.90;57.00;;;;;;5003868;28;20480;-50
2023/04/21 09:13:36;;;;;;;6.87;6.27;;;17.30;56.50;;;;;;5004276;28;21154;-52
2023/04/21 09:16:13;;;;;;;13.97;6.00;;;17.80;56.40;;;;;;5000928;28;20792;-50
2023/04/21 09:18:39;;;;;;;5.30;4.90;;;18.10;55.50;;;;;;5012062;28;20483;-50
2023/04/21 09:21:09;;;;;;;6.07;5.57;;;18.40;54.80;;;;;;5009302;28;20468;-49
2023/04/21 09:23:47;;;;;;;5.50;5.10;;;18.40;53.90;;;;;;5012202;28;20879;-49
2023/04/21 09:26:14;;;;;;;5.23;4.73;;;18.60;53.90;;;;;;5010192;28;20837;-53
2023/04/21 09:28:42;;;;;;;5.50;5.00;;;18.60;53.50;;;;;;5011807;28;20449;-49
2023/04/21 09:31:24;;;;;;;5.60;5.10;;;18.90;52.80;;;;;;5013041;28;20433;-53
2023/04/21 09:33:53;;;;;;;4.97;4.57;;;19.00;53.50;;;;;;5117868;23;20465;-48
2023/04/21 09:36:21;;;;;;;6.00;5.50;;;19.30;52.60;;;;;;5023533;28;20459;-46
2023/04/21 09:38:49;;;;;;;5.53;5.07;;;19.40;51.80;;;;;;5028820;28;20977;-47
2023/04/21 09:41:17;;;;;;;5.63;5.10;;;19.60;52.30;;;;;;5031011;28;20444;-48
2023/04/21 09:43:43;;;;;;;5.70;5.17;;;19.80;51.10;;;;;;5028987;28;20494;-50
2023/04/21 09:46:10;;;;;;;5.07;4.67;;;20.00;50.60;;;;;;5030532;28;20490;-48
2023/04/21 09:48:38;;;;;;;5.90;5.40;;;20.20;51.20;;;;;;5032771;28;20619;-47
2023/04/21 09:51:04;;;;;;;5.70;5.20;;;20.30;49.50;;;;;;5031101;28;20458;-47
2023/04/21 09:53:37;;;;;;;5.70;5.20;;;20.50;49.30;;;;;;5026786;28;20842;-47
2023/04/21 09:56:05;;;;;;;5.63;5.13;;;20.50;48.90;;;;;;5029337;28;21333;-49
2023/04/21 09:58:37;;;;;;;6.27;5.00;;;20.80;49.50;;;;;;5031872;28;20447;-48
2023/04/21 10:01:03;;;;;;;6.17;5.23;;;21.10;50.40;;;;;;5032630;28;21287;-49
2023/04/21 10:03:30;;;;;;;6.10;5.60;;;21.20;48.10;;;;;;5031813;28;21052;-49
2023/04/21 10:05:55;;;;;;;6.73;5.20;;;21.40;49.20;;;;;;5028754;28;20974;-47
2023/04/21 10:08:21;;;;;;;5.63;4.90;;;21.50;47.90;;;;;;5032342;28;20432;-49
2023/04/21 10:10:47;;;;;;;6.30;5.80;;;21.70;47.20;;;;;;5029888;28;20678;-47
2023/04/21 10:13:17;;;;;;;6.47;5.60;;;21.90;48.00;;;;;;5032425;28;20263;-51
2023/04/21 10:15:42;;;;;;;7.83;5.63;;;22.10;46.80;;;;;;5030234;28;20451;-49
2023/04/21 10:18:15;;;;;;;6.47;5.87;;;22.40;47.40;;;;;;5031643;28;20470;-49
2023/04/21 10:21:20;;;;;;;7.03;6.17;;;22.40;47.10;;;;;;5023107;28;20211;-47
2023/04/21 10:23:51;;;;;;;6.83;6.17;;;22.40;46.20;;;;;;5018297;28;20563;-50
2023/04/21 10:26:26;;;;;;;6.43;5.83;;;22.20;46.60;;;;;;5029951;28;20544;-47
2023/04/21 10:29:02;;;;;;;5.60;5.10;;;22.40;46.90;;;;;;5018031;28;20447;-49
2023/04/21 10:31:57;;;;;;;6.60;5.90;;;22.70;47.30;;;;;;5030946;28;20487;-47
2023/04/21 10:34:25;;;;;;;6.43;5.83;;;22.80;45.80;;;;;;5017731;28;20510;-49
2023/04/21 10:36:54;;;;;;;7.33;6.10;;;22.90;45.40;;;;;;5028772;28;20443;-47
2023/04/21 10:39:36;;;;;;;7.27;6.57;;;22.90;44.50;;;;;;5031148;28;20452;-48
2023/04/21 10:42:39;;;;;;;6.40;5.80;;;22.80;44.90;;;;;;5030201;28;20563;-48
2023/04/21 10:45:07;;;;;;;7.10;6.40;;;22.90;45.50;;;;;;5012894;28;20428;-50
2023/04/21 10:47:47;;;;;;;7.47;6.23;;;22.60;45.20;;;;;;5030397;28;20444;-49
2023/04/21 10:50:21;;;;;;;6.33;5.80;;;22.30;44.90;;;;;;5025217;28;20849;-52
2023/04/21 10:52:56;;;;;;;7.30;6.60;;;22.50;45.40;;;;;;5023174;28;20443;-53
2023/04/21 10:55:25;;;;;;;7.60;6.90;;;22.70;45.40;;;;;;5029411;28;20498;-52
2023/04/21 10:57:51;;;;;;;6.53;5.93;;;23.20;47.30;;;;;;5028616;28;20471;-50
2023/04/21 11:00:19;;;;;;;6.57;5.97;;;23.40;45.70;;;;;;5029897;28;20448;-51
2023/04/21 11:02:53;;;;;;;6.53;6.03;;;23.80;44.20;;;;;;5028822;28;20200;-49
2023/04/21 11:05:19;;;;;;;5.63;5.13;;;24.00;44.00;;;;;;5021124;28;20834;-49
2023/04/21 11:07:45;;;;;;;6.57;6.07;;;23.50;43.70;;;;;;5020903;28;20445;-52
2023/04/21 11:10:11;;;;;;;6.63;6.03;;;23.10;43.60;;;;;;5023799;28;20447;-54
2023/04/21 11:12:38;;;;;;;6.17;5.57;;;23.20;45.00;;;;;;5026266;28;20652;-51
2023/04/21 11:15:13;;;;;;;5.40;4.67;;;23.50;44.50;;;;;;5027297;28;20231;-49
2023/04/21 11:17:42;;;;;;;5.77;5.27;;;23.80;43.90;;;;;;5018864;28;20530;-53
2023/04/21 11:20:08;;;;;;;5.73;5.33;;;23.90;43.40;;;;;;5025919;28;20447;-49
2023/04/21 11:22:36;;;;;;;4.33;4.03;;;24.10;42.80;;;;;;5025527;28;20471;-48
2023/04/21 11:25:03;;;;;;;6.13;5.43;;;24.40;43.30;;;;;;5027447;28;20786;-49
2023/04/21 11:27:29;;;;;;;6.37;5.87;;;24.00;42.10;;;;;;5029070;28;20444;-53
2023/04/21 11:29:56;;;;;;;5.17;4.67;;;24.20;43.20;;;;;;5027178;28;20448;-50
2023/04/21 11:32:22;;;;;;;6.27;5.67;;;24.60;42.90;;;;;;5029529;28;20452;-49
2023/04/21 11:34:48;;;;;;;4.30;3.97;;;25.10;43.00;;;;;;5015039;28;20480;-50
2023/04/21 11:37:23;;;;;;;4.57;4.27;;;25.40;42.00;;;;;;5027679;28;20701;-50
2023/04/21 11:39:55;;;;;;;5.03;4.63;;;24.80;42.00;;;;;;5028887;28;20246;-52
2023/04/21 11:42:21;;;;;;;5.87;5.37;;;24.90;41.80;;;;;;5022325;28;20451;-52
2023/04/21 11:44:47;;;;;;;4.70;4.30;;;25.00;40.30;;;;;;5029502;28;20455;-49
2023/04/21 11:47:16;;;;;;;4.63;4.23;;;25.00;41.80;;;;;;5020706;28;20487;-50
2023/04/21 11:50:00;;;;;;;4.20;3.90;;;25.30;41.40;;;;;;5028526;28;20201;-51
2023/04/21 11:52:26;;;;;;;5.90;5.40;;;25.40;41.40;;;;;;5016874;28;20907;-50
2023/04/21 11:55:00;;;;;;;4.30;3.90;;;25.80;40.80;;;;;;5028674;28;20483;-52
2023/04/21 11:57:27;;;;;;;4.30;3.90;;;26.10;40.20;;;;;;5027306;28;20538;-53
2023/04/21 11:59:52;;;;;;;4.70;4.30;;;25.40;39.60;;;;;;5029131;28;20467;-49
2023/04/21 12:02:26;;;;;;;4.60;4.20;;;25.60;40.10;;;;;;5024045;28;20978;-50
2023/04/21 12:04:59;;;;;;;4.30;3.93;;;25.90;39.50;;;;;;5023614;28;20281;-53
2023/04/21 12:07:24;;;;;;;4.40;4.10;;;26.10;39.70;;;;;;5021621;28;20484;-52
2023/04/21 12:09:51;;;;;;;4.37;4.07;;;26.20;39.50;;;;;;5026146;28;20541;-49
2023/04/21 12:12:17;;;;;;;4.27;3.97;;;26.30;38.00;;;;;;5028687;28;20198;-52
2023/04/21 12:14:44;;;;;;;4.27;3.97;;;26.00;39.20;;;;;;5028638;28;20466;-52
2023/04/21 12:17:09;;;;;;;5.27;4.80;;;25.90;40.20;;;;;;5026300;28;20185;-52
2023/04/21 12:19:40;;;;;;;5.50;4.33;;;25.90;39.60;;;;;;5026075;28;20837;-50
2023/04/21 12:22:13;;;;;;;4.60;4.30;;;25.90;38.60;;;;;;5026275;28;20707;-49
2023/04/21 12:24:40;;;;;;;4.20;3.90;;;25.60;38.80;;;;;;5018033;28;20437;-49
2023/04/21 12:27:06;;;;;;;5.30;4.90;;;25.80;39.50;;;;;;5021701;28;20843;-52
2023/04/21 12:29:36;;;;;;;4.83;4.43;;;25.40;39.30;;;;;;5030206;28;20442;-51
2023/04/21 12:32:02;;;;;;;4.40;4.07;;;24.60;40.40;;;;;;5023123;28;20542;-53
2023/04/21 12:34:28;;;;;;;4.70;4.30;;;24.70;41.90;;;;;;5024540;28;20513;-49